Check out our new BloomSky Weather System.

Active alerts


No alerts


Thunder radar  blitzortung!


Rain radar more information rain snow radar


Visit our other weather sites:

Template documentation
and downloads

And another site



Weather Underground History page Text

Daily Summary for October 3, 2017 Units:  English    Metric   Both
« Previous Day
Next Day »
Daily Weekly Monthly Yearly Custom
  High: Low: Average:
Temperature: 84.6 °F 76.8 °F 78.4 °F
Dew Point: 80.2 °F 75.6 °F 77.3 °F
Humidity: 99 % 86 % 97 %
Wind Speed: 9.0 mph 0.0 mph 1.5 mph
Wind Gust: 16.0 mph - -
Wind:- - ESE
Pressure: 30.17 in 29.95 in -
Precipitation: 0.92 in    
Historical Graphs
 
 
Tabular Data for October 3, 2017
Time Temperature Dew Point Pressure Wind Wind Speed Wind Gust Humidity Rainfall Rate (Hourly)
00:02 78.8 °F 76.3 °F 29.95 in East 7.0 mph 10.0 mph 92 % 0.00 in
00:07 79.0 °F 76.1 °F 29.95 in SE 4.0 mph 11.0 mph 91 % 0.00 in
00:12 79.0 °F 76.5 °F 29.95 in ESE 6.0 mph 11.0 mph 92 % 0.00 in
00:17 79.2 °F 76.6 °F 29.95 in SSE 6.0 mph 11.0 mph 92 % 0.00 in
00:22 79.2 °F 76.6 °F 29.95 in SE 9.0 mph 10.0 mph 92 % 0.00 in
00:27 79.2 °F 76.6 °F 29.95 in ESE 7.0 mph 10.0 mph 92 % 0.00 in
00:32 79.0 °F 76.5 °F 29.96 in ESE 5.0 mph 10.0 mph 92 % 0.00 in
00:37 79.0 °F 76.5 °F 29.96 in ESE 4.0 mph 11.0 mph 92 % 0.00 in
00:43 79.0 °F 76.5 °F 29.96 in South 4.0 mph 11.0 mph 92 % 0.00 in
00:48 78.8 °F 76.3 °F 29.96 in SSE 3.0 mph 11.0 mph 92 % 0.00 in
00:53 78.8 °F 76.3 °F 29.96 in SE 2.0 mph 8.0 mph 92 % 0.00 in
00:58 78.6 °F 76.5 °F 29.96 in SE 4.0 mph 8.0 mph 93 % 0.00 in
01:03 78.6 °F 76.5 °F 29.96 in SSE 3.0 mph 8.0 mph 93 % 0.00 in
01:08 78.4 °F 76.3 °F 29.96 in ESE 2.0 mph 7.0 mph 93 % 0.00 in
01:13 78.4 °F 76.3 °F 29.96 in SSE 3.0 mph 7.0 mph 93 % 0.00 in
01:18 78.4 °F 76.3 °F 29.96 in SSE 1.0 mph 8.0 mph 93 % 0.00 in
01:23 78.4 °F 76.3 °F 29.96 in ESE 2.0 mph 8.0 mph 93 % 0.00 in
01:28 78.3 °F 76.5 °F 29.96 in SE 2.0 mph 8.0 mph 94 % 0.00 in
01:33 78.3 °F 76.5 °F 29.96 in ESE 2.0 mph 6.0 mph 94 % 0.00 in
01:38 78.3 °F 76.5 °F 29.96 in SE 3.0 mph 6.0 mph 94 % 0.00 in
01:43 78.1 °F 76.3 °F 29.96 in SSE 2.0 mph 5.0 mph 94 % 0.00 in
01:48 78.1 °F 76.3 °F 29.96 in Calm   4.0 mph 94 % 0.00 in
01:53 78.1 °F 76.3 °F 29.96 in ESE 2.0 mph 4.0 mph 94 % 0.00 in
01:58 77.9 °F 76.3 °F 29.96 in SE 1.0 mph 4.0 mph 95 % 0.00 in
02:03 77.7 °F 76.1 °F 29.97 in ESE 3.0 mph 4.0 mph 95 % 0.00 in
02:08 77.7 °F 76.1 °F 29.97 in Calm   3.0 mph 95 % 0.00 in
02:13 77.7 °F 76.1 °F 29.97 in Calm   3.0 mph 95 % 0.00 in
02:18 77.5 °F 75.9 °F 29.96 in Calm   3.0 mph 95 % 0.00 in
02:23 77.5 °F 75.9 °F 29.96 in Calm   1.0 mph 95 % 0.00 in
02:28 77.4 °F 75.7 °F 29.96 in Calm   1.0 mph 95 % 0.00 in
02:34 77.4 °F 76.1 °F 29.96 in Calm   1.0 mph 96 % 0.00 in
02:39 77.2 °F 75.9 °F 29.96 in Calm   1.0 mph 96 % 0.00 in
02:44 77.0 °F 75.7 °F 29.96 in Calm   1.0 mph 96 % 0.00 in
02:49 77.0 °F 75.7 °F 29.96 in Calm   1.0 mph 96 % 0.00 in
02:54 76.8 °F 75.6 °F 29.96 in Calm   1.0 mph 96 % 0.00 in
02:59 77.0 °F 75.7 °F 29.96 in Calm   1.0 mph 96 % 0.00 in
03:04 77.0 °F 76.1 °F 29.96 in Calm   1.0 mph 97 % 0.00 in
03:09 77.2 °F 76.3 °F 29.96 in Calm   1.0 mph 97 % 0.00 in
03:14 77.5 °F 76.6 °F 29.96 in East 2.0 mph 6.0 mph 97 % 0.00 in
03:19 77.7 °F 76.8 °F 29.96 in SE 2.0 mph 7.0 mph 97 % 0.03 in
03:24 77.7 °F 76.8 °F 29.96 in SE 2.0 mph 7.0 mph 97 % 0.03 in
03:29 77.7 °F 76.8 °F 29.96 in Calm   7.0 mph 97 % 0.03 in
03:34 77.7 °F 76.8 °F 29.96 in Calm   7.0 mph 97 % 0.03 in
03:39 77.7 °F 76.8 °F 29.96 in Calm   4.0 mph 97 % 0.03 in
03:44 77.5 °F 76.6 °F 29.96 in Calm   3.0 mph 97 % 0.03 in
03:49 77.5 °F 76.6 °F 29.96 in East 1.0 mph 2.0 mph 97 % 0.03 in
03:54 77.5 °F 76.6 °F 29.96 in Calm   2.0 mph 97 % 0.03 in
03:59 77.5 °F 77.0 °F 29.96 in Calm   2.0 mph 98 % 0.03 in
04:04 77.5 °F 77.0 °F 29.96 in Calm   2.0 mph 98 % 0.03 in
04:09 77.5 °F 77.0 °F 29.96 in East 1.0 mph 1.0 mph 98 % 0.03 in
04:14 77.5 °F 77.0 °F 29.96 in SE 1.0 mph 2.0 mph 98 % 0.03 in
04:19 77.5 °F 77.0 °F 29.96 in East 1.0 mph 3.0 mph 98 % 0.00 in
04:24 77.5 °F 77.0 °F 29.96 in ESE 1.0 mph 3.0 mph 98 % 0.00 in
04:29 77.5 °F 77.0 °F 29.96 in Calm   3.0 mph 98 % 0.00 in
04:34 77.5 °F 77.0 °F 29.96 in Calm   3.0 mph 98 % 0.00 in
04:40 77.4 °F 76.8 °F 29.96 in Calm   3.0 mph 98 % 0.00 in
04:44 77.4 °F 76.8 °F 29.96 in East 1.0 mph 2.0 mph 98 % 0.00 in
04:50 77.4 °F 76.8 °F 29.96 in Calm   2.0 mph 98 % 0.00 in
04:55 77.4 °F 76.8 °F 29.96 in Calm   2.0 mph 98 % 0.00 in
05:00 77.2 °F 76.6 °F 29.96 in Calm   2.0 mph 98 % 0.00 in
05:05 77.2 °F 76.6 °F 29.96 in Calm   1.0 mph 98 % 0.00 in
05:10 77.2 °F 76.6 °F 29.96 in Calm   1.0 mph 98 % 0.00 in
05:15 77.2 °F 76.6 °F 29.96 in Calm   1.0 mph 98 % 0.00 in
05:20 77.0 °F 76.5 °F 29.96 in Calm   1.0 mph 98 % 0.00 in
05:25 76.8 °F 76.3 °F 29.97 in Calm   1.0 mph 98 % 0.00 in
05:30 76.8 °F 76.3 °F 29.97 in Calm   1.0 mph 98 % 0.00 in
05:35 76.8 °F 76.3 °F 29.97 in Calm   1.0 mph 98 % 0.00 in
05:40 77.0 °F 76.6 °F 29.97 in Calm   1.0 mph 99 % 0.00 in
05:45 77.0 °F 76.6 °F 29.97 in Calm   1.0 mph 99 % 0.00 in
05:50 77.2 °F 76.8 °F 29.97 in Calm   1.0 mph 99 % 0.00 in
05:55 77.2 °F 76.8 °F 29.98 in East 1.0 mph 1.0 mph 99 % 0.00 in
06:00 77.2 °F 76.8 °F 29.98 in Calm   1.0 mph 99 % 0.00 in
06:05 77.2 °F 76.8 °F 29.98 in Calm   1.0 mph 99 % 0.00 in
06:13 77.4 °F 77.0 °F 29.98 in Calm   2.0 mph 99 % 0.00 in
06:18 77.4 °F 77.0 °F 29.98 in Calm   2.0 mph 99 % 0.00 in
06:23 77.5 °F 77.2 °F 29.99 in Calm   2.0 mph 99 % 0.00 in
06:28 77.5 °F 77.2 °F 29.99 in ENE 1.0 mph 2.0 mph 99 % 0.00 in
06:33 77.5 °F 77.2 °F 29.99 in Calm   2.0 mph 99 % 0.00 in
06:38 77.5 °F 77.2 °F 30.00 in Calm   2.0 mph 99 % 0.00 in
06:43 77.5 °F 77.2 °F 30.00 in Calm   1.0 mph 99 % 0.00 in
06:48 77.5 °F 77.2 °F 30.00 in Calm   1.0 mph 99 % 0.00 in
06:53 77.5 °F 77.2 °F 30.00 in Calm   1.0 mph 99 % 0.00 in
06:58 77.5 °F 77.2 °F 30.00 in Calm   2.0 mph 99 % 0.00 in
07:03 77.5 °F 77.2 °F 30.00 in Calm   2.0 mph 99 % 0.00 in
07:08 77.5 °F 77.2 °F 30.01 in Calm   3.0 mph 99 % 0.00 in
07:13 77.4 °F 77.0 °F 30.01 in Calm   3.0 mph 99 % 0.00 in
07:18 77.4 °F 77.0 °F 30.01 in Calm   3.0 mph 99 % 0.00 in
07:23 77.4 °F 77.0 °F 30.01 in Calm   2.0 mph 99 % 0.00 in
07:28 77.4 °F 77.0 °F 30.01 in ENE 1.0 mph 3.0 mph 99 % 0.00 in
07:33 77.4 °F 77.0 °F 30.01 in Calm   3.0 mph 99 % 0.00 in
07:38 77.4 °F 77.0 °F 30.01 in Calm   4.0 mph 99 % 0.00 in
07:43 77.4 °F 77.0 °F 30.02 in Calm   4.0 mph 99 % 0.00 in
07:48 77.4 °F 77.0 °F 30.02 in Calm   4.0 mph 99 % 0.00 in
07:53 77.5 °F 77.2 °F 30.02 in NW 1.0 mph 3.0 mph 99 % 0.00 in
07:58 77.5 °F 77.2 °F 30.02 in NNE 1.0 mph 3.0 mph 99 % 0.00 in
08:09 77.7 °F 77.4 °F 30.03 in NNE 1.0 mph 4.0 mph 99 % 0.00 in
08:14 77.7 °F 77.4 °F 30.03 in ENE 2.0 mph 4.0 mph 99 % 0.00 in
08:19 77.9 °F 77.5 °F 30.04 in ESE 1.0 mph 7.0 mph 99 % 0.00 in
08:24 78.1 °F 77.7 °F 30.04 in East 1.0 mph 7.0 mph 99 % 0.00 in
08:29 78.3 °F 77.9 °F 30.04 in Calm   7.0 mph 99 % 0.00 in
08:34 78.3 °F 77.9 °F 30.04 in Calm   5.0 mph 99 % 0.00 in
08:39 78.4 °F 78.1 °F 30.05 in Calm   4.0 mph 99 % 0.00 in
08:44 78.4 °F 77.9 °F 30.05 in ESE 2.0 mph 5.0 mph 98 % 0.00 in
08:49 78.4 °F 77.9 °F 30.05 in ENE 3.0 mph 5.0 mph 98 % 0.07 in
08:54 78.3 °F 77.7 °F 30.05 in ESE 2.0 mph 5.0 mph 98 % 0.12 in
09:04 78.4 °F 77.9 °F 30.05 in ESE 2.0 mph 5.0 mph 98 % 0.18 in
09:09 78.4 °F 78.1 °F 30.05 in Calm   5.0 mph 99 % 0.19 in
09:14 78.6 °F 78.3 °F 30.05 in Calm   5.0 mph 99 % 0.19 in
09:19 78.8 °F 78.4 °F 30.06 in East 1.0 mph 4.0 mph 99 % 0.19 in
09:24 78.6 °F 78.1 °F 30.06 in SSE 2.0 mph 5.0 mph 98 % 0.19 in
09:29 78.8 °F 78.4 °F 30.06 in SSE 2.0 mph 5.0 mph 99 % 0.19 in
09:34 79.0 °F 78.6 °F 30.06 in Calm   5.0 mph 99 % 0.20 in
09:39 79.2 °F 78.8 °F 30.06 in NE 2.0 mph 3.0 mph 99 % 0.21 in
09:44 79.3 °F 79.0 °F 30.06 in NE 3.0 mph 3.0 mph 99 % 0.21 in
09:49 79.3 °F 78.8 °F 30.06 in North 1.0 mph 3.0 mph 98 % 0.14 in
09:54 79.3 °F 78.8 °F 30.07 in NW 2.0 mph 4.0 mph 98 % 0.09 in
09:59 79.5 °F 79.0 °F 30.07 in NNW 1.0 mph 4.0 mph 98 % 0.04 in
10:04 79.5 °F 79.0 °F 30.07 in ENE 1.0 mph 6.0 mph 98 % 0.03 in
10:09 79.7 °F 79.2 °F 30.07 in ENE 2.0 mph 6.0 mph 98 % 0.02 in
10:14 79.9 °F 79.3 °F 30.07 in Calm   6.0 mph 98 % 0.02 in
10:17 80.2 °F 79.7 °F 30.07 in East 2.0 mph 6.0 mph 98 % 0.02 in
10:22 80.8 °F 79.9 °F 30.07 in SE 2.0 mph 7.0 mph 97 % 0.02 in
10:27 81.1 °F 79.5 °F 30.07 in ENE 3.0 mph 7.0 mph 95 % 0.02 in
10:32 81.5 °F 79.5 °F 30.07 in ENE 2.0 mph 7.0 mph 94 % 0.01 in
10:37 82.2 °F 80.2 °F 30.07 in ESE 7.0 mph 7.0 mph 94 % 0.00 in
10:42 82.6 °F 80.1 °F 30.07 in East 1.0 mph 7.0 mph 92 % 0.00 in
10:47 82.6 °F 79.3 °F 30.07 in SSE 3.0 mph 7.0 mph 90 % 0.00 in
10:52 82.6 °F 79.7 °F 30.07 in East 2.0 mph 7.0 mph 91 % 0.00 in
10:57 82.2 °F 79.3 °F 30.08 in ESE 2.0 mph 7.0 mph 91 % 0.00 in
11:02 81.9 °F 79.3 °F 30.08 in North 1.0 mph 7.0 mph 92 % 0.00 in
11:07 82.0 °F 79.9 °F 30.08 in NE 2.0 mph 7.0 mph 93 % 0.00 in
11:12 82.6 °F 80.1 °F 30.08 in Calm   8.0 mph 92 % 0.00 in
11:17 82.9 °F 80.1 °F 30.08 in ESE 3.0 mph 10.0 mph 91 % 0.00 in
11:22 82.6 °F 79.3 °F 30.08 in East 2.0 mph 10.0 mph 90 % 0.00 in
11:27 82.2 °F 79.3 °F 30.07 in Calm   10.0 mph 91 % 0.00 in
11:32 82.6 °F 79.7 °F 30.08 in ENE 3.0 mph 7.0 mph 91 % 0.00 in
11:37 82.9 °F 80.1 °F 30.07 in SE 3.0 mph 7.0 mph 91 % 0.00 in
11:42 83.8 °F 79.9 °F 30.07 in East 6.0 mph 7.0 mph 88 % 0.00 in
11:47 84.4 °F 79.7 °F 30.07 in East 5.0 mph 9.0 mph 86 % 0.00 in
11:52 84.6 °F 79.9 °F 30.07 in NE 4.0 mph 12.0 mph 86 % 0.00 in
11:57 84.2 °F 79.5 °F 30.08 in NE 6.0 mph 12.0 mph 86 % 0.00 in
12:02 83.8 °F 79.2 °F 30.08 in ENE 3.0 mph 12.0 mph 86 % 0.00 in
12:07 83.3 °F 79.3 °F 30.08 in SE 1.0 mph 10.0 mph 88 % 0.00 in
12:12 83.7 °F 80.1 °F 30.08 in ENE 3.0 mph 10.0 mph 89 % 0.00 in
12:14 83.5 °F 79.5 °F 30.08 in ENE 6.0 mph 10.0 mph 88 % 0.00 in
12:19 82.8 °F 79.2 °F 30.08 in East 4.0 mph 9.0 mph 89 % 0.00 in
12:24 81.9 °F 79.0 °F 30.08 in ESE 5.0 mph 9.0 mph 91 % 0.04 in
12:29 80.4 °F 77.9 °F 30.09 in SE 3.0 mph 9.0 mph 92 % 0.13 in
12:34 79.3 °F 77.5 °F 30.08 in East 5.0 mph 13.0 mph 94 % 0.19 in
12:39 78.3 °F 76.5 °F 30.07 in NE 5.0 mph 16.0 mph 94 % 0.44 in
12:44 77.7 °F 76.1 °F 30.09 in NE 1.0 mph 16.0 mph 95 % 0.47 in
12:49 77.5 °F 75.9 °F 30.09 in NNE 4.0 mph 16.0 mph 95 % 0.47 in
12:54 77.4 °F 76.1 °F 30.09 in East 2.0 mph 11.0 mph 96 % 0.47 in
12:59 77.5 °F 76.6 °F 30.09 in ESE 4.0 mph 5.0 mph 97 % 0.47 in
13:04 77.7 °F 76.8 °F 30.09 in ENE 3.0 mph 8.0 mph 97 % 0.47 in
13:09 77.7 °F 76.8 °F 30.09 in East 5.0 mph 8.0 mph 97 % 0.47 in
13:14 77.9 °F 77.4 °F 30.09 in SSW 8.0 mph 8.0 mph 98 % 0.56 in
13:19 77.9 °F 77.4 °F 30.09 in ENE 2.0 mph 11.0 mph 98 % 0.60 in
13:24 77.7 °F 77.2 °F 30.08 in SE 3.0 mph 11.0 mph 98 % 0.57 in
13:29 77.5 °F 77.0 °F 30.08 in ESE 2.0 mph 11.0 mph 98 % 0.50 in
13:34 77.5 °F 77.0 °F 30.08 in ESE 4.0 mph 10.0 mph 98 % 0.43 in
13:39 77.4 °F 76.8 °F 30.08 in SE 3.0 mph 10.0 mph 98 % 0.19 in
13:44 77.4 °F 76.8 °F 30.08 in ENE 1.0 mph 10.0 mph 98 % 0.17 in
13:55 77.2 °F 76.6 °F 30.08 in SSE 2.0 mph 10.0 mph 98 % 0.17 in
14:00 77.0 °F 76.1 °F 30.08 in ESE 2.0 mph 8.0 mph 97 % 0.17 in
14:05 77.0 °F 76.5 °F 30.09 in East 2.0 mph 9.0 mph 98 % 0.19 in
14:10 76.8 °F 76.3 °F 30.08 in ESE 1.0 mph 9.0 mph 98 % 0.19 in
14:11 76.8 °F 76.3 °F 30.08 in ESE 2.0 mph 9.0 mph 98 % 0.09 in
14:16 76.8 °F 76.3 °F 30.07 in East 2.0 mph 7.0 mph 98 % 0.06 in
14:21 76.8 °F 76.3 °F 30.06 in East 3.0 mph 7.0 mph 98 % 0.04 in
14:26 76.8 °F 76.3 °F 30.06 in East 2.0 mph 8.0 mph 98 % 0.03 in
14:31 76.8 °F 76.3 °F 30.06 in ESE 3.0 mph 8.0 mph 98 % 0.03 in
14:36 76.8 °F 76.3 °F 30.06 in ESE 3.0 mph 12.0 mph 98 % 0.03 in
14:41 76.8 °F 76.3 °F 30.06 in Calm   12.0 mph 98 % 0.03 in
14:47 77.0 °F 76.5 °F 30.06 in Calm   12.0 mph 98 % 0.03 in
14:52 77.0 °F 76.5 °F 30.06 in East 3.0 mph 7.0 mph 98 % 0.03 in
14:57 77.2 °F 76.6 °F 30.06 in East 1.0 mph 5.0 mph 98 % 0.03 in
15:02 77.2 °F 76.6 °F 30.06 in Calm   5.0 mph 98 % 0.02 in
15:07 77.2 °F 76.6 °F 30.06 in East 1.0 mph 5.0 mph 98 % 0.01 in
15:12 77.2 °F 76.6 °F 30.06 in East 1.0 mph 4.0 mph 98 % 0.02 in
15:17 77.4 °F 76.8 °F 30.06 in East 5.0 mph 6.0 mph 98 % 0.02 in
15:22 77.4 °F 76.8 °F 30.06 in Calm   6.0 mph 98 % 0.02 in
15:27 77.4 °F 76.8 °F 30.06 in East 2.0 mph 6.0 mph 98 % 0.02 in
15:32 77.4 °F 76.8 °F 30.06 in ESE 2.0 mph 6.0 mph 98 % 0.02 in
15:36 77.4 °F 76.8 °F 30.05 in East 2.0 mph 5.0 mph 98 % 0.01 in
15:42 77.4 °F 76.8 °F 30.05 in ENE 2.0 mph 5.0 mph 98 % 0.01 in
15:46 77.4 °F 76.8 °F 30.05 in Calm   6.0 mph 98 % 0.01 in
15:52 77.4 °F 76.8 °F 30.05 in East 1.0 mph 6.0 mph 98 % 0.01 in
15:57 77.4 °F 77.0 °F 30.05 in ESE 1.0 mph 6.0 mph 99 % 0.01 in
16:02 77.5 °F 77.2 °F 30.05 in East 2.0 mph 5.0 mph 99 % 0.01 in
16:07 77.5 °F 77.2 °F 30.05 in ENE 5.0 mph 5.0 mph 99 % 0.01 in
16:12 77.5 °F 77.2 °F 30.05 in SSE 2.0 mph 6.0 mph 99 % 0.00 in
16:17 77.5 °F 77.0 °F 30.05 in ENE 2.0 mph 6.0 mph 98 % 0.00 in
16:22 77.5 °F 77.0 °F 30.05 in NE 2.0 mph 6.0 mph 98 % 0.00 in
16:23 77.7 °F 77.2 °F 30.05 in North 1.0 mph 6.0 mph 98 % 0.00 in
16:28 77.7 °F 77.2 °F 30.05 in North 2.0 mph 5.0 mph 98 % 0.00 in
16:33 77.9 °F 77.4 °F 30.05 in SE 1.0 mph 5.0 mph 98 % 0.00 in
16:38 78.1 °F 77.7 °F 30.05 in Calm   5.0 mph 99 % 0.00 in
16:43 78.1 °F 77.5 °F 30.05 in East 3.0 mph 5.0 mph 98 % 0.00 in
16:48 78.3 °F 77.7 °F 30.05 in Calm   5.0 mph 98 % 0.00 in
16:53 78.3 °F 77.7 °F 30.05 in East 1.0 mph 6.0 mph 98 % 0.00 in
16:58 78.4 °F 77.9 °F 30.06 in SE 2.0 mph 6.0 mph 98 % 0.00 in
17:03 78.4 °F 77.9 °F 30.06 in Calm   6.0 mph 98 % 0.00 in
17:08 78.4 °F 77.9 °F 30.06 in SE 2.0 mph 5.0 mph 98 % 0.00 in
17:09 78.4 °F 77.9 °F 30.06 in Calm   5.0 mph 98 % 0.00 in
17:14 78.6 °F 78.1 °F 30.06 in Calm   7.0 mph 98 % 0.00 in
17:19 78.6 °F 78.1 °F 30.06 in Calm   7.0 mph 98 % 0.00 in
17:24 78.8 °F 78.3 °F 30.06 in ENE 2.0 mph 7.0 mph 98 % 0.00 in
17:29 78.8 °F 78.3 °F 30.06 in Calm   6.0 mph 98 % 0.00 in
17:34 79.0 °F 78.4 °F 30.06 in East 2.0 mph 6.0 mph 98 % 0.00 in
17:39 79.0 °F 78.4 °F 30.06 in NE 1.0 mph 5.0 mph 98 % 0.00 in
17:44 79.0 °F 78.4 °F 30.07 in Calm   5.0 mph 98 % 0.00 in
17:49 79.2 °F 78.6 °F 30.07 in NNE 1.0 mph 4.0 mph 98 % 0.00 in
17:54 79.2 °F 78.6 °F 30.07 in NE 1.0 mph 5.0 mph 98 % 0.00 in
17:59 79.2 °F 78.6 °F 30.08 in ESE 2.0 mph 5.0 mph 98 % 0.00 in
18:04 79.2 °F 78.6 °F 30.08 in Calm   5.0 mph 98 % 0.00 in
18:09 79.2 °F 78.6 °F 30.08 in ENE 2.0 mph 5.0 mph 98 % 0.00 in
18:14 79.3 °F 78.8 °F 30.08 in ENE 1.0 mph 5.0 mph 98 % 0.00 in
18:19 79.3 °F 78.8 °F 30.08 in NNW 1.0 mph 6.0 mph 98 % 0.00 in
18:24 79.3 °F 78.8 °F 30.08 in ESE 1.0 mph 6.0 mph 98 % 0.00 in
18:28 79.3 °F 78.8 °F 30.08 in ENE 1.0 mph 6.0 mph 98 % 0.00 in
18:33 79.3 °F 78.8 °F 30.08 in SE 2.0 mph 6.0 mph 98 % 0.00 in
18:38 79.3 °F 78.8 °F 30.08 in ESE 1.0 mph 6.0 mph 98 % 0.00 in
18:43 79.3 °F 78.8 °F 30.09 in ESE 2.0 mph 9.0 mph 98 % 0.00 in
18:48 79.3 °F 78.4 °F 30.09 in Calm   9.0 mph 97 % 0.00 in
18:53 79.3 °F 78.4 °F 30.09 in East 1.0 mph 9.0 mph 97 % 0.00 in
18:58 79.2 °F 78.3 °F 30.10 in Calm   5.0 mph 97 % 0.00 in
19:03 79.2 °F 78.3 °F 30.10 in ENE 4.0 mph 6.0 mph 97 % 0.00 in
19:08 79.0 °F 78.1 °F 30.10 in ENE 3.0 mph 7.0 mph 97 % 0.00 in
19:13 79.0 °F 77.7 °F 30.10 in East 1.0 mph 7.0 mph 96 % 0.00 in
19:18 78.8 °F 77.5 °F 30.10 in ENE 1.0 mph 7.0 mph 96 % 0.00 in
19:23 78.6 °F 77.4 °F 30.10 in ENE 3.0 mph 7.0 mph 96 % 0.00 in
19:28 78.4 °F 77.2 °F 30.10 in East 1.0 mph 7.0 mph 96 % 0.00 in
19:33 78.3 °F 77.0 °F 30.10 in ENE 7.0 mph 7.0 mph 96 % 0.00 in
19:38 77.9 °F 76.6 °F 30.10 in ENE 3.0 mph 8.0 mph 96 % 0.00 in
19:43 77.7 °F 76.5 °F 30.10 in East 2.0 mph 8.0 mph 96 % 0.00 in
19:48 77.7 °F 76.5 °F 30.10 in ESE 3.0 mph 8.0 mph 96 % 0.00 in
19:53 77.5 °F 76.3 °F 30.10 in East 6.0 mph 7.0 mph 96 % 0.00 in
19:58 77.5 °F 76.3 °F 30.11 in ENE 2.0 mph 7.0 mph 96 % 0.00 in
20:03 77.5 °F 76.3 °F 30.11 in SE 4.0 mph 7.0 mph 96 % 0.00 in
20:08 77.5 °F 76.3 °F 30.11 in Calm   7.0 mph 96 % 0.00 in
20:13 77.4 °F 76.5 °F 30.11 in Calm   7.0 mph 97 % 0.00 in
20:18 77.4 °F 76.5 °F 30.12 in ESE 4.0 mph 7.0 mph 97 % 0.00 in
20:23 77.4 °F 76.5 °F 30.12 in East 2.0 mph 7.0 mph 97 % 0.00 in
20:28 77.4 °F 76.5 °F 30.12 in Calm   6.0 mph 97 % 0.00 in
20:33 77.4 °F 76.5 °F 30.12 in East 1.0 mph 6.0 mph 97 % 0.00 in
20:38 77.4 °F 76.5 °F 30.13 in SSE 1.0 mph 6.0 mph 97 % 0.00 in
20:43 77.4 °F 76.5 °F 30.13 in Calm   5.0 mph 97 % 0.00 in
20:48 77.4 °F 76.5 °F 30.13 in NW 1.0 mph 5.0 mph 97 % 0.00 in
20:53 77.5 °F 76.6 °F 30.13 in ENE 1.0 mph 6.0 mph 97 % 0.00 in
20:58 77.5 °F 76.6 °F 30.14 in ESE 1.0 mph 6.0 mph 97 % 0.00 in
21:03 77.5 °F 76.6 °F 30.14 in Calm   6.0 mph 97 % 0.00 in
21:13 77.5 °F 76.6 °F 30.14 in East 1.0 mph 4.0 mph 97 % 0.00 in
21:18 77.5 °F 76.6 °F 30.14 in SE 3.0 mph 4.0 mph 97 % 0.00 in
21:23 77.7 °F 76.8 °F 30.14 in ESE 4.0 mph 5.0 mph 97 % 0.00 in
21:28 77.7 °F 76.8 °F 30.14 in East 1.0 mph 5.0 mph 97 % 0.00 in
21:33 77.7 °F 76.8 °F 30.14 in SE 1.0 mph 5.0 mph 97 % 0.00 in
21:38 77.7 °F 77.2 °F 30.14 in East 1.0 mph 5.0 mph 98 % 0.00 in
21:43 77.7 °F 77.2 °F 30.15 in Calm   3.0 mph 98 % 0.00 in
21:48 77.7 °F 77.2 °F 30.15 in SE 1.0 mph 3.0 mph 98 % 0.00 in
21:54 77.7 °F 77.2 °F 30.15 in ESE 1.0 mph 4.0 mph 98 % 0.00 in
21:59 77.9 °F 77.4 °F 30.15 in Calm   4.0 mph 98 % 0.00 in
22:04 77.9 °F 77.4 °F 30.15 in ESE 1.0 mph 4.0 mph 98 % 0.00 in
22:09 77.9 °F 77.4 °F 30.15 in ESE 2.0 mph 4.0 mph 98 % 0.00 in
22:14 77.9 °F 77.4 °F 30.15 in ESE 2.0 mph 4.0 mph 98 % 0.00 in
22:19 77.9 °F 77.0 °F 30.15 in Calm   4.0 mph 97 % 0.00 in
22:22 77.9 °F 77.0 °F 30.15 in ENE 1.0 mph 4.0 mph 97 % 0.00 in
22:27 77.9 °F 77.0 °F 30.15 in Calm   4.0 mph 97 % 0.00 in
22:32 77.9 °F 77.0 °F 30.15 in SE 3.0 mph 4.0 mph 97 % 0.00 in
22:35 77.9 °F 77.0 °F 30.15 in Calm   4.0 mph 97 % 0.00 in
22:40 77.9 °F 77.0 °F 30.16 in Calm   4.0 mph 97 % 0.00 in
22:45 77.9 °F 77.0 °F 30.16 in NE 2.0 mph 4.0 mph 97 % 0.00 in
22:50 77.9 °F 77.0 °F 30.16 in Calm   4.0 mph 97 % 0.00 in
22:55 77.9 °F 77.0 °F 30.16 in East 1.0 mph 4.0 mph 97 % 0.00 in
23:00 77.9 °F 77.0 °F 30.16 in Calm   4.0 mph 97 % 0.00 in
23:05 77.7 °F 76.8 °F 30.16 in ENE 1.0 mph 2.0 mph 97 % 0.00 in
23:10 77.7 °F 76.8 °F 30.16 in Calm   2.0 mph 97 % 0.00 in
23:15 77.7 °F 76.8 °F 30.16 in Calm   2.0 mph 97 % 0.00 in
23:20 77.7 °F 76.8 °F 30.16 in Calm   2.0 mph 97 % 0.00 in
23:25 77.7 °F 76.8 °F 30.16 in Calm   2.0 mph 97 % 0.00 in
23:30 77.7 °F 76.8 °F 30.16 in NE 1.0 mph 2.0 mph 97 % 0.00 in
23:35 77.7 °F 76.8 °F 30.17 in Calm   2.0 mph 97 % 0.00 in
23:40 77.7 °F 76.8 °F 30.16 in NE 1.0 mph 2.0 mph 97 % 0.00 in
23:46 77.7 °F 76.8 °F 30.16 in Calm   2.0 mph 97 % 0.00 in
23:51 77.7 °F 76.8 °F 30.16 in East 1.0 mph 3.0 mph 97 % 0.00 in
23:56 77.7 °F 76.8 °F 30.16 in Calm   3.0 mph 97 % 0.00 in
Spring, Texas: Villages of Bridgestone
Compliments of Weather Underground - 2.75 mb

Script developed by  Jim McMurry - jmcmurry@mwt.net Adapted for the template by  Wim van der Kuil - Leuven-Template.eu

You find our weather info also at:

UK Metoffice

WeatherCloud

Weather Underground

Mid-South Weather Network

AWEKAS

Citizen Weather Observer Program (CWOP)

HAMweather, WeatherForYou, PWS Weather

Equipment we use:

Weather-station
Davis Vantage Vue

Weather-program
Meteohub

Weather-server
Debian 7.9 x86 (Guest)

Provider
DreamHost

Davis Vantage Vue

Meteohub

Debian 7.9 x86 (Guest)

DreamHost